Time;durP1;ratioP1;P1;durP2;ratioP2;P2;SDS_P1;SDS_P2;PMS_P1;PMS_P2;Temp;Humidity;BMP_temperature;BMP_pressure;BME280_temperature;BME280_humidity;BME280_pressure;Samples;Min_cycle;Max_cycle;Signal;HPM_P1;HPM_P2
2021/03/02 00:01:07;;;;;;;4.85;2.65;;;6.80;99.90;;;;;;5092705;28;20179;-68
2021/03/02 00:03:34;;;;;;;3.43;2.40;;;7.00;99.90;;;;;;5093048;28;20584;-68
2021/03/02 00:06:00;;;;;;;3.20;2.60;;;7.00;99.90;;;;;;5092983;28;20402;-68
2021/03/02 00:08:27;;;;;;;3.47;2.30;;;7.00;99.90;;;;;;5092590;28;20429;-68
2021/03/02 00:11:00;;;;;;;2.20;1.80;;;6.70;99.90;;;;;;5092913;28;20409;-68
2021/03/02 00:13:30;;;;;;;4.95;2.13;;;6.60;99.90;;;;;;5092662;28;20235;-68
2021/03/02 00:16:03;;;;;;;3.83;2.78;;;6.60;99.90;;;;;;5092542;28;20199;-68
2021/03/02 00:18:39;;;;;;;5.00;2.60;;;6.50;99.90;;;;;;5092601;28;20667;-68
2021/03/02 00:21:11;;;;;;;3.25;2.42;;;6.60;99.90;;;;;;5092961;28;20191;-68
2021/03/02 00:23:43;;;;;;;4.28;2.50;;;6.70;99.90;;;;;;5092894;28;20152;-68
2021/03/02 00:26:11;;;;;;;2.55;2.08;;;6.50;99.90;;;;;;5092867;28;20225;-68
2021/03/02 00:28:39;;;;;;;4.30;2.50;;;6.60;99.90;;;;;;5092804;28;20546;-68
2021/03/02 00:31:06;;;;;;;7.63;3.10;;;6.60;99.90;;;;;;5093169;28;20207;-68
2021/03/02 00:33:34;;;;;;;3.78;2.17;;;6.50;99.90;;;;;;5092778;28;20250;-68
2021/03/02 00:35:59;;;;;;;5.32;2.33;;;6.60;99.90;;;;;;5095119;28;20195;-68
2021/03/02 00:38:25;;;;;;;2.67;2.13;;;6.40;99.90;;;;;;5096201;28;20170;-68
2021/03/02 00:40:51;;;;;;;3.00;2.33;;;6.40;99.90;;;;;;5096060;28;20164;-68
2021/03/02 00:43:17;;;;;;;4.75;2.60;;;6.20;99.90;;;;;;5096320;28;20179;-68
2021/03/02 00:45:42;;;;;;;9.90;2.43;;;6.10;99.90;;;;;;5096056;28;20255;-68
2021/03/02 00:48:09;;;;;;;5.30;2.77;;;6.20;99.90;;;;;;5095987;28;20372;-68
2021/03/02 00:50:34;;;;;;;3.75;2.80;;;6.00;99.90;;;;;;5095893;28;20667;-68
2021/03/02 00:53:00;;;;;;;3.23;2.47;;;6.00;99.90;;;;;;5096198;28;20219;-68
2021/03/02 00:55:26;;;;;;;3.63;2.07;;;6.10;99.90;;;;;;5095862;28;20290;-68
2021/03/02 00:57:51;;;;;;;3.10;2.43;;;5.90;99.90;;;;;;5096080;28;20174;-68
2021/03/02 01:00:17;;;;;;;3.50;2.73;;;5.80;99.90;;;;;;5096038;28;20178;-68
2021/03/02 01:02:44;;;;;;;3.10;2.47;;;5.80;99.90;;;;;;5095752;28;20191;-68
2021/03/02 01:05:09;;;;;;;2.88;2.60;;;5.90;99.90;;;;;;5095553;28;20410;-68
2021/03/02 01:07:36;;;;;;;4.93;3.10;;;5.70;99.90;;;;;;5095589;28;20232;-68
2021/03/02 01:10:05;;;;;;;7.85;2.67;;;5.70;99.90;;;;;;5095567;28;20441;-68
2021/03/02 01:12:30;;;;;;;6.40;2.92;;;5.70;99.90;;;;;;5095695;28;20595;-68
2021/03/02 01:14:56;;;;;;;3.27;2.43;;;5.60;99.90;;;;;;5095694;28;20199;-68
2021/03/02 01:17:22;;;;;;;3.78;2.47;;;5.50;99.90;;;;;;5095412;28;20509;-68
2021/03/02 01:19:48;;;;;;;3.73;3.03;;;5.40;99.90;;;;;;5095660;28;20175;-68
2021/03/02 01:22:13;;;;;;;3.10;2.30;;;5.50;99.90;;;;;;5095293;28;20508;-68
2021/03/02 01:24:39;;;;;;;2.87;1.93;;;5.60;99.90;;;;;;5095292;28;20683;-68
2021/03/02 01:27:05;;;;;;;5.90;4.13;;;5.40;99.90;;;;;;5095536;28;20557;-68
2021/03/02 01:29:30;;;;;;;3.60;2.57;;;5.40;99.90;;;;;;5095436;28;20167;-68
2021/03/02 01:31:56;;;;;;;2.57;2.27;;;5.40;99.90;;;;;;5095279;28;20196;-68
2021/03/02 01:34:21;;;;;;;3.73;3.10;;;5.40;99.90;;;;;;5095358;28;20599;-68
2021/03/02 01:36:47;;;;;;;3.80;2.03;;;5.40;99.90;;;;;;5095044;28;20636;-68
2021/03/02 01:39:13;;;;;;;4.77;2.60;;;5.40;99.90;;;;;;5095055;28;20166;-68
2021/03/02 01:41:40;;;;;;;3.57;2.93;;;5.50;99.90;;;;;;5095072;28;20400;-68
2021/03/02 01:44:06;;;;;;;2.53;2.08;;;5.20;99.90;;;;;;5093549;28;20182;-68
2021/03/02 01:46:32;;;;;;;4.33;2.80;;;5.20;99.90;;;;;;5094709;28;20167;-69
2021/03/02 01:48:57;;;;;;;5.50;3.13;;;5.10;99.90;;;;;;5095041;28;20175;-68
2021/03/02 01:51:23;;;;;;;2.87;2.37;;;5.20;99.90;;;;;;5094729;28;20198;-68
2021/03/02 01:53:49;;;;;;;2.93;2.40;;;5.40;99.90;;;;;;5094745;28;20168;-68
2021/03/02 01:56:15;;;;;;;2.73;2.00;;;5.40;99.90;;;;;;5094602;28;20203;-68
2021/03/02 01:58:40;;;;;;;5.05;2.55;;;5.30;99.90;;;;;;5094668;28;20172;-68
2021/03/02 02:01:08;;;;;;;5.10;2.33;;;5.20;99.90;;;;;;5094593;28;20563;-68
2021/03/02 02:03:34;;;;;;;2.70;2.35;;;5.10;99.90;;;;;;5094551;28;20164;-67
2021/03/02 02:06:08;;;;;;;5.20;2.80;;;5.20;99.90;;;;;;5094504;28;20659;-68
2021/03/02 02:08:55;;;;;;;3.67;2.95;;;5.00;99.90;;;;;;5094473;28;20179;-68
2021/03/02 02:11:43;;;;;;;3.45;2.38;;;4.90;1.00;;;;;;5094322;28;20266;-68
2021/03/02 02:14:30;;;;;;;6.00;2.55;;;5.00;99.90;;;;;;5094311;28;20159;-68
2021/03/02 02:16:58;;;;;;;3.90;2.83;;;5.10;99.90;;;;;;5094579;28;20167;-68
2021/03/02 02:19:39;;;;;;;5.75;3.38;;;4.90;1.00;;;;;;5094826;28;20769;-67
2021/03/02 02:22:16;;;;;;;6.13;2.60;;;5.00;1.00;;;;;;5094444;28;20191;-67
2021/03/02 02:25:12;;;;;;;5.25;3.28;;;4.90;1.00;;;;;;5094791;28;20640;-68
2021/03/02 02:27:39;;;;;;;5.55;3.17;;;4.80;1.00;;;;;;5065185;28;20184;-68
2021/03/02 02:30:06;;;;;;;3.55;2.22;;;4.60;1.00;;;;;;5094073;28;20182;-68
2021/03/02 02:32:32;;;;;;;2.88;2.17;;;4.70;1.00;;;;;;5094186;28;20340;-68
2021/03/02 02:34:58;;;;;;;3.35;2.42;;;4.90;1.00;;;;;;5093851;28;20668;-68
2021/03/02 02:37:26;;;;;;;4.80;2.70;;;4.80;1.00;;;;;;5093904;28;20175;-67
2021/03/02 02:39:53;;;;;;;3.20;2.45;;;4.90;1.00;;;;;;5093963;28;20250;-68
2021/03/02 02:42:20;;;;;;;4.32;2.42;;;4.80;1.00;;;;;;5093875;28;20729;-68
2021/03/02 02:44:48;;;;;;;15.77;3.88;;;4.70;1.00;;;;;;5094022;28;20171;-68
2021/03/02 02:47:15;;;;;;;3.17;2.70;;;4.60;1.00;;;;;;5094061;28;20205;-68
2021/03/02 02:49:41;;;;;;;4.85;2.63;;;4.50;1.00;;;;;;5093715;28;20168;-68
2021/03/02 02:52:07;;;;;;;3.50;2.47;;;4.60;1.00;;;;;;5093677;28;20187;-68
2021/03/02 02:54:33;;;;;;;2.67;2.10;;;4.70;1.00;;;;;;5093921;28;20195;-68
2021/03/02 02:56:59;;;;;;;3.13;2.53;;;4.70;1.00;;;;;;5093986;28;20163;-68
2021/03/02 02:59:30;;;;;;;5.45;2.20;;;4.70;1.00;;;;;;5092748;28;20582;-68
2021/03/02 03:02:00;;;;;;;3.10;2.80;;;4.70;1.00;;;;;;5093513;28;20195;-68
2021/03/02 03:04:36;;;;;;;3.70;2.67;;;4.70;1.00;;;;;;5093261;28;20193;-68
2021/03/02 03:07:04;;;;;;;3.67;2.47;;;4.70;1.00;;;;;;5093315;28;20240;-67
2021/03/02 03:09:30;;;;;;;3.42;2.50;;;4.60;1.00;;;;;;5093462;28;20144;-68
2021/03/02 03:12:06;;;;;;;3.00;2.40;;;4.40;1.00;;;;;;5093334;28;20182;-67
2021/03/02 03:14:35;;;;;;;4.50;2.88;;;4.60;1.00;;;;;;5093227;28;20171;-68
2021/03/02 03:17:01;;;;;;;4.45;2.90;;;4.50;1.00;;;;;;5093586;28;20628;-68
2021/03/02 03:19:29;;;;;;;4.97;2.87;;;4.50;1.00;;;;;;5093557;28;20194;-68
2021/03/02 03:21:56;;;;;;;6.82;2.35;;;4.30;1.00;;;;;;5093423;28;20202;-68
2021/03/02 03:24:25;;;;;;;4.60;3.40;;;4.30;1.00;;;;;;5093234;28;20164;-68
2021/03/02 03:26:52;;;;;;;3.22;2.10;;;4.20;1.00;;;;;;5093201;28;20170;-68
2021/03/02 03:29:20;;;;;;;2.90;2.70;;;4.20;1.00;;;;;;5093408;28;20250;-68
2021/03/02 03:31:46;;;;;;;4.18;2.70;;;4.30;1.00;;;;;;5093097;28;20190;-68
2021/03/02 03:34:14;;;;;;;4.90;2.85;;;4.40;1.00;;;;;;5093094;28;20164;-68
2021/03/02 03:36:41;;;;;;;4.18;2.78;;;4.30;1.00;;;;;;5093336;28;20307;-68
2021/03/02 03:39:07;;;;;;;3.40;2.90;;;4.30;1.00;;;;;;5093000;28;20168;-68
2021/03/02 03:41:33;;;;;;;5.10;3.33;;;4.30;1.00;;;;;;5092987;28;20183;-68
2021/03/02 03:43:59;;;;;;;5.00;2.90;;;4.40;1.00;;;;;;5093475;28;20632;-68
2021/03/02 03:46:24;;;;;;;3.37;2.57;;;4.40;1.00;;;;;;5092934;28;20182;-69
2021/03/02 03:48:51;;;;;;;3.37;2.73;;;4.20;1.00;;;;;;5093591;28;20372;-68
2021/03/02 03:51:17;;;;;;;5.72;3.08;;;4.40;1.00;;;;;;5093087;28;20259;-68
2021/03/02 03:53:44;;;;;;;11.88;3.15;;;4.50;1.00;;;;;;5093051;28;20171;-68
2021/03/02 03:56:11;;;;;;;9.68;3.88;;;4.50;1.00;;;;;;5092995;28;20223;-69
2021/03/02 03:58:39;;;;;;;9.45;3.25;;;4.50;1.00;;;;;;5092760;28;20163;-68
2021/03/02 04:01:06;;;;;;;16.35;4.28;;;4.40;1.00;;;;;;5092686;28;20197;-69
2021/03/02 04:03:33;;;;;;;7.10;2.33;;;4.60;1.00;;;;;;5092744;28;20640;-69
2021/03/02 04:06:02;;;;;;;5.93;3.22;;;4.40;1.00;;;;;;5092710;28;20168;-69
2021/03/02 04:08:32;;;;;;;5.22;2.80;;;4.50;1.00;;;;;;5093026;28;20646;-69
2021/03/02 04:10:58;;;;;;;8.40;3.22;;;4.70;1.00;;;;;;5095167;28;20192;-68
2021/03/02 04:13:26;;;;;;;8.32;3.33;;;4.80;1.00;;;;;;5096769;28;20176;-69
2021/03/02 04:15:52;;;;;;;4.85;3.80;;;4.80;1.00;;;;;;5096486;28;20199;-68
2021/03/02 04:18:18;;;;;;;5.30;3.23;;;4.80;1.00;;;;;;5096609;28;20178;-69
2021/03/02 04:20:47;;;;;;;5.55;3.75;;;4.80;1.00;;;;;;5096702;28;20163;-68
2021/03/02 04:23:12;;;;;;;5.05;2.92;;;4.90;1.00;;;;;;5096771;28;20174;-68
2021/03/02 04:25:38;;;;;;;5.20;3.03;;;4.90;1.00;;;;;;5096267;28;20164;-68
2021/03/02 04:28:05;;;;;;;6.40;3.43;;;5.10;1.00;;;;;;5096567;28;20172;-68
2021/03/02 04:30:32;;;;;;;5.20;3.45;;;5.00;1.00;;;;;;5096134;28;20228;-67
2021/03/02 04:32:57;;;;;;;5.00;3.50;;;5.10;1.00;;;;;;5096042;28;20191;-68
2021/03/02 04:35:23;;;;;;;4.90;3.10;;;5.30;1.00;;;;;;5096447;28;20191;-68
2021/03/02 04:37:49;;;;;;;4.90;3.53;;;5.30;1.00;;;;;;5095998;28;20171;-68
2021/03/02 04:40:15;;;;;;;37.67;5.30;;;5.00;1.00;;;;;;5096127;28;20171;-68
2021/03/02 04:42:42;;;;;;;5.50;3.15;;;5.20;1.00;;;;;;5095807;28;20419;-68
2021/03/02 04:45:09;;;;;;;10.88;3.65;;;5.10;1.00;;;;;;5096041;28;20195;-69
2021/03/02 04:47:36;;;;;;;6.45;3.47;;;5.20;1.00;;;;;;5095632;28;20246;-68
2021/03/02 04:50:04;;;;;;;6.55;3.78;;;5.30;1.00;;;;;;5095830;28;20175;-68
2021/03/02 04:52:29;;;;;;;4.47;3.35;;;5.10;1.00;;;;;;5095412;28;20195;-68
2021/03/02 04:54:55;;;;;;;5.60;3.33;;;5.20;1.00;;;;;;5095581;28;20690;-69
2021/03/02 04:57:20;;;;;;;5.33;3.50;;;5.60;1.00;;;;;;5095922;28;20171;-69
2021/03/02 04:59:46;;;;;;;8.00;3.90;;;5.40;1.00;;;;;;5095622;28;20380;-68
2021/03/02 05:02:12;;;;;;;7.67;3.53;;;5.30;1.00;;;;;;5095560;28;20195;-68
2021/03/02 05:04:37;;;;;;;6.60;3.30;;;5.40;1.00;;;;;;5095320;28;20168;-68
2021/03/02 05:07:03;;;;;;;5.20;3.40;;;5.60;1.00;;;;;;5095313;28;20179;-67
2021/03/02 05:09:28;;;;;;;108.47;15.40;;;5.90;1.00;;;;;;5095579;28;20276;-69
2021/03/02 05:11:54;;;;;;;9.37;3.93;;;6.20;1.00;;;;;;5095350;28;20194;-68
2021/03/02 05:14:20;;;;;;;25.43;4.13;;;6.30;1.00;;;;;;5095188;28;20725;-68
2021/03/02 05:16:45;;;;;;;71.70;12.23;;;6.30;99.90;;;;;;5095268;28;20561;-68
2021/03/02 05:19:11;;;;;;;41.33;7.03;;;6.40;99.90;;;;;;5095206;28;20183;-68
2021/03/02 05:21:36;;;;;;;57.87;10.00;;;6.50;99.90;;;;;;5094080;28;20215;-68
2021/03/02 05:24:02;;;;;;;116.33;13.20;;;6.70;99.90;;;;;;5095021;28;20168;-68
2021/03/02 05:26:27;;;;;;;82.70;8.87;;;6.70;99.90;;;;;;5095411;28;20175;-68
2021/03/02 05:28:53;;;;;;;19.03;4.97;;;6.80;99.90;;;;;;5095139;28;20193;-67
2021/03/02 05:31:18;;;;;;;4.43;3.40;;;6.80;99.90;;;;;;5095156;28;20555;-68
2021/03/02 05:33:44;;;;;;;164.03;18.50;;;7.00;99.90;;;;;;5094851;28;20168;-68
2021/03/02 05:36:09;;;;;;;8.73;4.87;;;6.90;99.90;;;;;;5095341;28;20530;-67
2021/03/02 05:38:35;;;;;;;73.23;8.80;;;6.70;99.90;;;;;;5095021;28;20171;-66
2021/03/02 05:41:04;;;;;;;176.57;16.43;;;6.80;99.90;;;;;;5094940;28;20501;-69
2021/03/02 05:43:30;;;;;;;255.30;29.73;;;6.90;99.90;;;;;;5094877;28;20250;-66
2021/03/02 05:45:56;;;;;;;43.23;5.70;;;7.00;99.90;;;;;;5094760;28;20699;-68
2021/03/02 05:48:25;;;;;;;37.58;7.40;;;7.00;99.90;;;;;;5094760;28;20164;-67
2021/03/02 05:50:53;;;;;;;24.33;6.43;;;6.90;99.90;;;;;;5094348;28;20671;-68
2021/03/02 05:53:19;;;;;;;18.42;3.97;;;7.00;99.90;;;;;;5094693;28;20300;-68
2021/03/02 05:55:45;;;;;;;15.80;4.80;;;6.80;99.90;;;;;;5094456;28;20273;-68
2021/03/02 05:58:13;;;;;;;21.88;7.28;;;6.70;99.90;;;;;;5094329;28;20645;-67
2021/03/02 06:00:38;;;;;;;163.65;16.10;;;6.70;99.90;;;;;;5095430;28;20624;-68
2021/03/02 06:03:04;;;;;;;270.43;26.53;;;6.70;99.90;;;;;;5094395;28;20172;-68
2021/03/02 06:05:30;;;;;;;28.67;5.17;;;6.70;99.90;;;;;;5094221;28;20591;-67
2021/03/02 06:07:56;;;;;;;198.90;15.17;;;6.70;99.90;;;;;;5094335;28;20456;-68
2021/03/02 06:10:31;;;;;;;13.00;4.37;;;6.50;99.90;;;;;;5094445;28;20196;-68
2021/03/02 06:12:57;;;;;;;21.15;6.25;;;6.20;99.90;;;;;;5094757;28;20281;-68
2021/03/02 06:15:24;;;;;;;32.58;7.30;;;6.20;99.90;;;;;;5094498;28;20240;-68
2021/03/02 06:18:09;;;;;;;28.80;5.50;;;6.40;99.90;;;;;;5094540;28;20168;-68
2021/03/02 06:20:36;;;;;;;12.63;4.80;;;6.40;99.90;;;;;;5094427;28;20232;-68
2021/03/02 06:23:22;;;;;;;10.65;5.13;;;6.40;99.90;;;;;;5093902;28;20167;-67
2021/03/02 06:25:49;;;;;;;20.52;5.30;;;6.30;99.90;;;;;;5094198;28;20562;-68
2021/03/02 06:28:30;;;;;;;32.97;5.85;;;6.40;99.90;;;;;;5094314;28;20217;-68
2021/03/02 06:30:56;;;;;;;19.88;5.68;;;6.60;99.90;;;;;;5094255;28;20275;-68
2021/03/02 06:33:21;;;;;;;33.97;7.50;;;6.60;99.90;;;;;;5093968;28;20644;-68
2021/03/02 06:35:47;;;;;;;21.80;5.80;;;6.70;99.90;;;;;;5093440;28;20201;-68
2021/03/02 06:38:30;;;;;;;58.87;8.10;;;6.60;99.90;;;;;;5093799;28;20244;-68
2021/03/02 06:40:56;;;;;;;18.02;7.50;;;6.70;99.90;;;;;;5093372;28;20178;-69
2021/03/02 06:43:29;;;;;;;71.38;9.20;;;6.80;99.90;;;;;;5094016;28;20211;-68
2021/03/02 06:45:54;;;;;;;23.33;6.43;;;6.80;99.90;;;;;;5093817;28;20175;-69
2021/03/02 06:48:20;;;;;;;16.30;6.13;;;6.80;99.90;;;;;;5093950;28;20605;-68
2021/03/02 06:50:46;;;;;;;22.90;6.30;;;7.10;99.90;;;;;;5093924;28;20766;-68
2021/03/02 06:53:12;;;;;;;10.70;5.77;;;7.10;99.90;;;;;;5093724;28;20179;-68
2021/03/02 06:55:39;;;;;;;9.48;5.95;;;7.10;99.90;;;;;;5093293;28;20198;-68
2021/03/02 06:58:15;;;;;;;11.02;5.05;;;7.10;99.90;;;;;;5093469;28;20163;-68
2021/03/02 07:00:49;;;;;;;12.98;5.28;;;7.20;99.90;;;;;;5093782;28;20197;-68
2021/03/02 07:03:25;;;;;;;8.45;4.50;;;7.30;99.90;;;;;;5093512;28;20205;-68
2021/03/02 07:05:51;;;;;;;9.70;5.55;;;7.40;99.90;;;;;;5093479;28;20178;-68
2021/03/02 07:08:18;;;;;;;29.85;8.20;;;7.40;99.90;;;;;;5092926;28;20194;-68
2021/03/02 07:10:49;;;;;;;19.48;6.13;;;7.70;99.90;;;;;;5092892;28;20179;-68
2021/03/02 07:13:14;;;;;;;7.70;5.05;;;7.60;99.90;;;;;;5093137;28;20158;-68
2021/03/02 07:15:41;;;;;;;11.00;5.37;;;7.50;99.90;;;;;;5093087;28;20678;-68
2021/03/02 07:18:10;;;;;;;13.02;5.78;;;7.70;99.90;;;;;;5093108;28;20455;-68
2021/03/02 07:20:39;;;;;;;15.57;6.57;;;7.80;99.90;;;;;;5093307;28;20172;-67
2021/03/02 07:23:05;;;;;;;18.02;5.85;;;8.00;99.90;;;;;;5093065;28;20203;-68
2021/03/02 07:25:35;;;;;;;9.13;5.30;;;8.10;99.90;;;;;;5092771;28;20179;-68
2021/03/02 07:28:02;;;;;;;10.75;6.35;;;8.10;99.90;;;;;;5092709;28;20171;-68
2021/03/02 07:30:27;;;;;;;12.27;5.82;;;8.30;99.90;;;;;;5092955;28;20263;-67
2021/03/02 07:32:54;;;;;;;141.03;17.60;;;8.30;99.90;;;;;;5092900;28;20600;-68
2021/03/02 07:35:21;;;;;;;31.88;8.85;;;8.40;99.90;;;;;;5092625;28;20194;-67
2021/03/02 07:37:48;;;;;;;13.20;5.18;;;8.30;99.90;;;;;;5092916;28;20166;-68
2021/03/02 07:40:16;;;;;;;17.25;5.50;;;8.40;99.90;;;;;;5092801;28;20671;-68
2021/03/02 07:42:42;;;;;;;11.93;5.03;;;8.50;99.90;;;;;;5092941;28;20183;-66
2021/03/02 07:45:18;;;;;;;13.27;6.73;;;8.60;99.90;;;;;;5093873;28;20640;-69
2021/03/02 07:47:52;;;;;;;11.48;5.60;;;8.60;99.90;;;;;;5096617;28;20673;-68
2021/03/02 07:50:25;;;;;;;14.98;6.38;;;8.80;99.90;;;;;;5097002;28;20230;-68
2021/03/02 07:53:15;;;;;;;57.70;11.52;;;8.90;99.90;;;;;;5096493;28;20189;-69
2021/03/02 07:55:42;;;;;;;42.45;8.23;;;9.00;99.90;;;;;;5095021;28;20198;-69
2021/03/02 07:58:18;;;;;;;26.13;7.05;;;9.20;99.90;;;;;;5096545;28;20171;-69
2021/03/02 08:00:48;;;;;;;9.60;5.50;;;9.20;99.90;;;;;;5096305;28;20533;-67
2021/03/02 08:03:21;;;;;;;23.40;5.80;;;9.30;99.90;;;;;;5096650;28;20484;-67
2021/03/02 08:05:54;;;;;;;11.17;6.37;;;9.20;99.90;;;;;;5096662;28;20291;-67
2021/03/02 08:08:25;;;;;;;30.37;7.83;;;9.40;99.90;;;;;;5096250;28;20936;-68
2021/03/02 08:11:01;;;;;;;13.07;6.80;;;9.50;99.90;;;;;;5096029;28;20459;-68
2021/03/02 08:13:40;;;;;;;15.73;5.60;;;9.50;99.90;;;;;;5096477;28;20207;-67
2021/03/02 08:16:07;;;;;;;21.25;7.80;;;9.70;99.90;;;;;;5096401;28;20535;-67
2021/03/02 08:18:38;;;;;;;42.37;9.63;;;9.90;99.90;;;;;;5096398;28;20251;-67
2021/03/02 08:21:16;;;;;;;11.93;6.60;;;10.10;99.90;;;;;;5096489;28;20865;-68
2021/03/02 08:23:59;;;;;;;16.93;6.03;;;10.30;99.90;;;;;;5096311;28;20811;-69
2021/03/02 08:26:31;;;;;;;15.90;6.95;;;10.10;99.90;;;;;;5096534;28;20419;-69
2021/03/02 08:29:16;;;;;;;19.83;8.10;;;10.40;99.90;;;;;;5096535;28;20169;-69
2021/03/02 08:31:47;;;;;;;18.20;7.70;;;10.50;99.90;;;;;;5096472;28;20928;-69
2021/03/02 08:34:16;;;;;;;107.63;16.07;;;10.70;99.90;;;;;;5095855;28;20841;-68
2021/03/02 08:36:42;;;;;;;23.00;8.23;;;10.70;99.90;;;;;;5095955;28;20570;-68
2021/03/02 08:39:12;;;;;;;12.50;6.13;;;10.80;99.90;;;;;;5096218;28;20840;-68
2021/03/02 08:41:40;;;;;;;34.33;8.53;;;10.70;99.90;;;;;;5096166;28;20987;-68
2021/03/02 08:44:06;;;;;;;19.90;6.97;;;10.80;99.90;;;;;;5096101;28;20405;-68
2021/03/02 08:46:34;;;;;;;196.27;26.43;;;10.90;99.90;;;;;;5095823;28;20405;-67
2021/03/02 08:49:11;;;;;;;36.80;10.07;;;11.00;99.90;;;;;;5094482;28;20506;-68
2021/03/02 08:51:38;;;;;;;13.80;6.47;;;11.20;99.90;;;;;;5096053;28;20905;-68
2021/03/02 08:54:04;;;;;;;34.97;8.90;;;11.30;99.90;;;;;;5095332;28;20910;-67
2021/03/02 08:56:31;;;;;;;19.17;7.63;;;11.40;99.90;;;;;;5094308;28;20517;-68
2021/03/02 08:59:07;;;;;;;19.47;8.03;;;11.60;99.90;;;;;;5095512;28;20405;-69
2021/03/02 09:01:35;;;;;;;21.80;7.97;;;11.60;99.90;;;;;;5095195;28;20478;-68
2021/03/02 09:04:18;;;;;;;18.33;7.80;;;11.80;99.90;;;;;;5095823;28;20393;-68
2021/03/02 09:06:44;;;;;;;130.30;18.40;;;12.00;99.90;;;;;;5096120;28;20762;-68
2021/03/02 09:09:14;;;;;;;31.07;12.17;;;12.00;99.90;;;;;;5095769;28;20696;-68
2021/03/02 09:11:44;;;;;;;19.67;12.93;;;12.20;99.90;;;;;;5095606;28;20825;-69
2021/03/02 09:14:14;;;;;;;12.87;7.83;;;12.30;99.90;;;;;;5093941;28;20402;-69
2021/03/02 09:16:50;;;;;;;9.40;6.43;;;12.40;99.90;;;;;;5095387;28;20778;-69
2021/03/02 09:19:49;;;;;;;21.10;8.93;;;12.40;99.90;;;;;;5094752;28;20398;-69
2021/03/02 09:22:17;;;;;;;21.60;7.47;;;12.50;99.90;;;;;;5090971;28;20444;-69
2021/03/02 09:24:42;;;;;;;18.23;8.10;;;12.60;99.90;;;;;;5095604;28;20513;-68
2021/03/02 09:27:10;;;;;;;11.87;7.80;;;13.00;99.90;;;;;;5095307;28;20740;-69
2021/03/02 09:29:47;;;;;;;123.97;25.87;;;13.10;99.90;;;;;;5095091;28;20636;-69
2021/03/02 09:32:15;;;;;;;16.03;8.20;;;13.10;99.90;;;;;;5094993;28;20432;-67
2021/03/02 09:34:44;;;;;;;21.10;8.70;;;13.20;99.90;;;;;;5094814;28;20409;-69
2021/03/02 09:37:19;;;;;;;11.27;6.67;;;13.20;99.90;;;;;;5095121;28;20441;-68
2021/03/02 09:40:04;;;;;;;11.90;7.43;;;13.10;99.90;;;;;;5095057;28;20390;-68
2021/03/02 09:42:32;;;;;;;12.27;7.30;;;13.10;99.90;;;;;;5094659;28;20419;-69
2021/03/02 09:45:12;;;;;;;26.47;8.50;;;13.40;99.90;;;;;;5094768;28;20472;-69
2021/03/02 09:47:39;;;;;;;12.93;7.37;;;13.40;99.90;;;;;;5094732;28;20395;-68
2021/03/02 09:50:10;;;;;;;13.17;8.60;;;13.60;99.90;;;;;;5094581;28;20401;-69
2021/03/02 09:52:46;;;;;;;9.23;6.90;;;13.90;99.90;;;;;;5094480;28;20425;-68
2021/03/02 09:55:12;;;;;;;13.70;8.90;;;13.90;99.90;;;;;;5094522;28;20437;-69
2021/03/02 09:58:11;;;;;;;11.87;7.13;;;14.00;99.90;;;;;;5094715;28;20420;-69
2021/03/02 10:00:44;;;;;;;14.30;9.87;;;14.20;99.90;;;;;;5094502;28;20155;-69
2021/03/02 10:03:15;;;;;;;16.43;8.40;;;14.40;99.90;;;;;;5094549;28;20375;-69
2021/03/02 10:05:46;;;;;;;11.43;8.10;;;14.50;99.90;;;;;;5094707;28;20440;-69
2021/03/02 10:08:20;;;;;;;13.10;8.23;;;14.70;99.90;;;;;;5094083;28;20452;-69
2021/03/02 10:10:45;;;;;;;21.80;8.73;;;14.70;99.90;;;;;;5094169;28;20450;-69
2021/03/02 10:13:11;;;;;;;13.37;7.67;;;14.90;99.90;;;;;;5094224;28;20803;-69
2021/03/02 10:15:37;;;;;;;23.30;8.37;;;15.00;99.90;;;;;;5093911;28;20185;-69
2021/03/02 10:18:21;;;;;;;14.63;8.23;;;14.70;99.90;;;;;;5094395;28;20257;-69
2021/03/02 10:21:07;;;;;;;13.60;7.23;;;14.70;99.90;;;;;;5094391;28;20556;-69
2021/03/02 10:23:34;;;;;;;11.90;6.80;;;15.00;99.90;;;;;;5094275;28;20813;-69
2021/03/02 10:26:00;;;;;;;13.53;7.77;;;15.20;99.90;;;;;;5095077;28;20412;-68
2021/03/02 10:28:30;;;;;;;24.80;9.63;;;15.40;99.90;;;;;;5095198;28;20412;-69
2021/03/02 10:30:56;;;;;;;13.77;7.60;;;15.30;99.90;;;;;;5093702;28;20925;-69
2021/03/02 10:33:22;;;;;;;12.23;7.10;;;15.50;99.90;;;;;;5093684;28;20413;-70
2021/03/02 10:35:47;;;;;;;15.30;8.30;;;15.40;99.90;;;;;;5093615;28;20240;-68
2021/03/02 10:38:13;;;;;;;12.23;6.83;;;15.50;99.90;;;;;;5093885;28;20168;-68
2021/03/02 10:40:38;;;;;;;13.17;7.70;;;15.90;99.90;;;;;;5093755;28;20202;-69
2021/03/02 10:43:04;;;;;;;10.47;7.27;;;16.20;99.90;;;;;;5093847;28;20174;-69
2021/03/02 10:45:29;;;;;;;11.77;8.43;;;16.40;99.90;;;;;;5093415;28;20171;-69
2021/03/02 10:47:55;;;;;;;10.13;6.80;;;16.50;99.90;;;;;;5093442;28;20305;-69
2021/03/02 10:50:21;;;;;;;17.33;7.97;;;16.40;99.90;;;;;;5092989;28;20179;-69
2021/03/02 10:52:47;;;;;;;21.93;8.93;;;16.60;99.90;;;;;;5093312;28;20232;-69
2021/03/02 10:55:12;;;;;;;23.23;8.77;;;16.80;99.90;;;;;;5093657;28;20503;-69
2021/03/02 10:57:38;;;;;;;13.97;7.53;;;17.10;99.90;;;;;;5093420;28;20160;-69
2021/03/02 11:00:05;;;;;;;18.77;8.30;;;17.10;99.90;;;;;;5093132;28;20164;-69
2021/03/02 11:02:30;;;;;;;20.33;8.00;;;17.30;99.90;;;;;;5091936;28;20246;-69
2021/03/02 11:04:56;;;;;;;8.67;6.60;;;17.60;99.90;;;;;;5092914;28;20804;-69
2021/03/02 11:07:21;;;;;;;730.07;100.53;;;17.70;99.90;;;;;;5092814;28;20189;-69
2021/03/02 11:09:49;;;;;;;67.73;14.90;;;17.60;99.90;;;;;;5093111;28;20153;-69
2021/03/02 11:12:14;;;;;;;11.70;8.20;;;17.70;99.90;;;;;;5092755;28;20272;-69
2021/03/02 11:14:40;;;;;;;13.47;8.07;;;17.90;99.90;;;;;;5092546;28;20429;-69
2021/03/02 11:17:06;;;;;;;10.70;7.33;;;18.20;99.90;;;;;;5092896;28;20628;-69
2021/03/02 11:19:31;;;;;;;17.93;8.40;;;18.40;99.90;;;;;;5092268;28;20170;-69
2021/03/02 11:21:57;;;;;;;11.23;8.30;;;18.40;99.90;;;;;;5093157;28;20558;-68
2021/03/02 11:24:23;;;;;;;20.20;12.37;;;18.20;99.90;;;;;;5093094;28;20165;-69
2021/03/02 11:26:49;;;;;;;21.00;9.37;;;18.10;99.90;;;;;;5094233;28;20165;-69
2021/03/02 11:29:15;;;;;;;16.30;8.60;;;18.00;99.90;;;;;;5094280;28;20410;-68
2021/03/02 11:31:40;;;;;;;11.13;8.50;;;17.70;99.90;;;;;;5094465;28;20255;-68
2021/03/02 11:34:06;;;;;;;12.63;8.03;;;17.70;99.90;;;;;;5093021;28;20181;-69
2021/03/02 11:36:31;;;;;;;18.13;8.97;;;17.80;99.90;;;;;;5092633;28;20189;-68
2021/03/02 11:38:57;;;;;;;27.97;8.80;;;17.90;99.90;;;;;;5093104;28;20216;-69
2021/03/02 11:41:22;;;;;;;14.00;8.00;;;18.20;99.90;;;;;;5093404;28;20389;-69
2021/03/02 11:43:48;;;;;;;12.50;8.07;;;17.70;99.90;;;;;;5093089;28;20190;-67
2021/03/02 11:46:13;;;;;;;11.63;8.90;;;17.70;99.90;;;;;;5092856;28;20196;-68
2021/03/02 11:48:39;;;;;;;27.87;8.97;;;18.20;99.90;;;;;;5092600;28;20172;-69
2021/03/02 11:51:05;;;;;;;20.10;10.47;;;17.90;99.90;;;;;;5092962;28;20283;-69
2021/03/02 11:53:30;;;;;;;14.67;9.43;;;18.50;99.90;;;;;;5092758;28;20211;-69
2021/03/02 11:55:56;;;;;;;14.77;8.80;;;18.60;99.90;;;;;;5092569;28;20216;-69
2021/03/02 11:58:22;;;;;;;10.80;7.47;;;19.20;99.90;;;;;;5093027;28;20203;-69
2021/03/02 12:00:48;;;;;;;14.83;8.80;;;19.40;99.90;;;;;;5092735;28;20163;-69
2021/03/02 12:03:13;;;;;;;11.07;8.10;;;19.50;99.90;;;;;;5093290;28;20413;-69
2021/03/02 12:05:39;;;;;;;13.10;9.57;;;19.70;99.90;;;;;;5092380;28;20201;-69
2021/03/02 12:08:05;;;;;;;12.30;9.20;;;19.50;99.90;;;;;;5093502;28;20217;-70
2021/03/02 12:10:30;;;;;;;18.30;9.00;;;19.10;99.90;;;;;;5092955;28;20172;-68
2021/03/02 12:12:56;;;;;;;13.33;9.10;;;19.70;99.90;;;;;;5092576;28;20429;-68
2021/03/02 12:15:21;;;;;;;26.77;10.50;;;20.10;99.90;;;;;;5092455;28;20278;-69
2021/03/02 12:17:47;;;;;;;16.67;9.53;;;19.90;99.90;;;;;;5093231;28;20175;-68
2021/03/02 12:20:12;;;;;;;46.47;12.73;;;19.40;99.90;;;;;;5092755;28;20174;-69
2021/03/02 12:22:39;;;;;;;20.33;10.63;;;19.40;99.90;;;;;;5092530;28;20190;-68
2021/03/02 12:25:05;;;;;;;17.73;10.73;;;19.80;99.90;;;;;;5092402;28;20197;-68
2021/03/02 12:27:31;;;;;;;17.27;8.27;;;20.60;99.90;;;;;;5092848;28;20457;-69
2021/03/02 12:29:58;;;;;;;25.80;11.00;;;20.90;99.90;;;;;;5092940;28;20410;-67
2021/03/02 12:32:23;;;;;;;13.33;9.60;;;21.10;99.90;;;;;;5095401;28;20271;-69
2021/03/02 12:34:49;;;;;;;16.83;10.30;;;20.70;99.90;;;;;;5096192;28;20438;-69
2021/03/02 12:37:14;;;;;;;17.73;10.00;;;20.60;99.90;;;;;;5096993;28;20173;-69
2021/03/02 12:39:40;;;;;;;16.10;9.77;;;21.30;99.90;;;;;;5096277;28;20175;-69
2021/03/02 12:42:05;;;;;;;25.13;9.53;;;21.70;99.90;;;;;;5094698;28;20202;-70
2021/03/02 12:44:31;;;;;;;40.90;13.20;;;21.60;99.90;;;;;;5097023;28;20177;-69
2021/03/02 12:46:57;;;;;;;13.70;8.90;;;21.70;99.90;;;;;;5095712;28;20301;-69
2021/03/02 12:49:22;;;;;;;16.43;9.53;;;21.60;99.90;;;;;;5095838;28;20644;-69
2021/03/02 12:51:48;;;;;;;20.20;10.17;;;21.00;99.90;;;;;;5096011;28;20196;-68
2021/03/02 12:54:13;;;;;;;24.13;11.10;;;20.60;99.90;;;;;;5095517;28;20180;-69